Terminal Aerodrome Forecast
Issued by NWS

Home | Current Version | Previous Version | Text Only | Print | Product List | Glossary On
Versions: 1 2 3 4 5 6 7 8 9 10 11 12 13 14 15 16 17 18 19 20 21 22
831
FTUS43 KILX 291742
TAFBMI
TAF
KBMI 291742Z 2918/3018 28007KT P6SM BKN020
      TEMPO 2918/2920 SCT020 BKN035
     FM292000 29006KT P6SM VCSH SCT025 BKN035
     FM300200 VRB03KT P6SM BKN035
     FM301000 VRB03KT 4SM BR BKN004
     FM301400 28006KT P6SM SCT005 BKN010=

USA.gov is the U.S. government's official web portal to all federal, state and local government web resources and services.